Time;durP1;ratioP1;P1;durP2;ratioP2;P2;SDS_P1;SDS_P2;PMS_P1;PMS_P2;Temp;Humidity;BMP_temperature;BMP_pressure;BME280_temperature;BME280_humidity;BME280_pressure;Samples;Min_cycle;Max_cycle;Signal;HPM_P1;HPM_P2
2024/03/12 00:01:03;;;;;;;;;56.00;40.25;;;;;-143.90;100.00;75046.09;4919100;28;102974;-70
2024/03/12 00:03:30;;;;;;;;;45.75;37.50;;;;;-143.90;100.00;75052.31;4928821;28;104080;-70
2024/03/12 00:05:59;;;;;;;;;44.50;35.00;;;;;-143.90;100.00;75048.19;4939533;28;102270;-69
2024/03/12 00:08:29;;;;;;;;;53.50;40.75;;;;;-143.90;100.00;75052.31;4945523;28;102010;-70
2024/03/12 00:10:57;;;;;;;;;47.00;37.50;;;;;-143.90;100.00;75048.19;4934141;28;102364;-71
2024/03/12 00:13:24;;;;;;;;;49.50;38.00;;;;;-143.90;100.00;75048.19;4928597;28;109391;-71
2024/03/12 00:15:50;;;;;;;;;43.25;35.50;;;;;-143.90;100.00;75044.03;4920192;28;103644;-70
2024/03/12 00:18:17;;;;;;;;;43.00;31.75;;;;;-143.90;100.00;75048.19;4937132;28;102376;-70
2024/03/12 00:20:45;;;;;;;;;40.00;32.50;;;;;-143.90;100.00;75046.09;4927284;28;103319;-69
2024/03/12 00:23:12;;;;;;;;;40.75;36.00;;;;;-143.90;100.00;75050.25;4940391;28;103833;-69
2024/03/12 00:25:40;;;;;;;;;54.50;42.75;;;;;-143.90;100.00;75058.50;4925800;28;104965;-70
2024/03/12 00:28:08;;;;;;;;;51.50;39.50;;;;;-143.90;100.00;75056.44;4937507;28;102077;-69
2024/03/12 00:30:38;;;;;;;;;60.75;42.25;;;;;-143.90;100.00;75060.59;4939654;28;102329;-69
2024/03/12 00:33:05;;;;;;;;;54.00;38.25;;;;;-143.90;100.00;75060.59;4938611;28;104142;-69
2024/03/12 00:35:34;;;;;;;;;49.50;39.00;;;;;-143.90;100.00;75052.31;4911393;28;102526;-70
2024/03/12 00:38:03;;;;;;;;;43.75;35.75;;;;;-143.90;100.00;75054.38;4929337;28;102545;-69
2024/03/12 00:40:33;;;;;;;;;52.75;42.75;;;;;-143.90;100.00;75064.72;4939726;28;101991;-69
2024/03/12 00:43:00;;;;;;;;;47.25;37.50;;;;;-143.90;100.00;75064.72;4938170;28;104186;-70
2024/03/12 00:45:36;;;;;;;;;35.75;30.25;;;;;-143.90;100.00;75054.38;4931038;28;104226;-68
2024/03/12 00:48:09;;;;;;;;;31.00;24.50;;;;;-143.90;100.00;75052.31;4936519;28;105276;-70
2024/03/12 00:50:37;;;;;;;;;33.00;26.50;;;;;-143.90;100.00;75046.09;4930161;28;102342;-70
2024/03/12 00:53:05;;;;;;;;;29.25;20.75;;;;;-143.90;100.00;75039.91;4939384;28;104040;-70
2024/03/12 00:55:32;;;;;;;;;31.50;28.25;;;;;-143.90;100.00;75039.91;4929289;28;103042;-70
2024/03/12 00:57:58;;;;;;;;;29.75;26.00;;;;;-143.90;100.00;75048.19;4930818;28;102335;-69
2024/03/12 01:00:28;;;;;;;;;31.75;25.25;;;;;-143.90;100.00;75039.91;4943886;28;102471;-70
2024/03/12 01:02:58;;;;;;;;;23.75;21.50;;;;;-143.90;100.00;75035.78;4935207;28;108711;-70
2024/03/12 01:05:27;;;;;;;;;24.00;20.00;;;;;-143.90;100.00;75033.72;4924381;28;101974;-70
2024/03/12 01:07:58;;;;;;;;;28.25;22.25;;;;;-143.90;100.00;75035.78;4937948;28;103307;-70
2024/03/12 01:10:27;;;;;;;;;25.75;18.25;;;;;-143.90;100.00;75035.78;4936557;28;102083;-70
2024/03/12 01:12:55;;;;;;;;;29.25;27.50;;;;;-143.90;100.00;75035.78;4939916;28;108915;-70
2024/03/12 01:15:26;;;;;;;;;33.25;30.00;;;;;-143.90;100.00;75039.91;4931538;28;102318;-70
2024/03/12 01:17:53;;;;;;;;;26.25;25.75;;;;;-143.90;100.00;75033.72;4935034;28;102285;-70
2024/03/12 01:20:21;;;;;;;;;27.75;24.00;;;;;-143.90;100.00;75033.72;4936937;28;102115;-70
2024/03/12 01:22:51;;;;;;;;;29.50;25.25;;;;;-143.90;100.00;75037.84;4940203;28;104160;-70
2024/03/12 01:25:21;;;;;;;;;30.25;24.50;;;;;-143.90;100.00;75031.63;4935825;28;105159;-70
2024/03/12 01:27:48;;;;;;;;;31.25;28.25;;;;;-143.90;100.00;75035.78;4927383;28;102099;-70
2024/03/12 01:30:16;;;;;;;;;22.75;19.25;;;;;-143.90;100.00;75039.91;4927652;28;101924;-70
2024/03/12 01:32:47;;;;;;;;;41.75;31.50;;;;;-143.90;100.00;75044.03;4940919;28;104037;-70
2024/03/12 01:35:14;;;;;;;;;29.00;24.33;;;;;-143.90;100.00;75044.03;4940096;28;102274;-70
2024/03/12 01:37:43;;;;;;;;;31.50;24.75;;;;;-143.90;100.00;75046.09;4927214;28;102252;-70
2024/03/12 01:40:21;;;;;;;;;33.50;28.50;;;;;-143.90;100.00;75039.91;4929104;28;104934;-70
2024/03/12 01:42:54;;;;;;;;;27.75;23.25;;;;;-143.90;100.00;75044.03;4935985;28;104178;-70
2024/03/12 01:45:24;;;;;;;;;24.00;20.00;;;;;-143.90;100.00;75039.91;4933598;28;102458;-70
2024/03/12 01:47:52;;;;;;;;;24.25;20.50;;;;;-143.90;100.00;75037.84;4929193;28;102003;-70
2024/03/12 01:50:21;;;;;;;;;22.00;19.25;;;;;-143.90;100.00;75037.84;4926333;28;102390;-70
2024/03/12 01:52:53;;;;;;;;;39.25;31.50;;;;;-143.90;100.00;75044.03;4928819;28;104429;-71
2024/03/12 01:55:19;;;;;;;;;38.00;28.75;;;;;-143.90;100.00;75044.03;4942328;28;102808;-70
2024/03/12 01:57:47;;;;;;;;;27.50;25.00;;;;;-143.90;100.00;75035.78;4926170;28;102441;-71
2024/03/12 02:00:15;;;;;;;;;19.00;16.75;;;;;-143.90;100.00;75039.91;4927958;28;102442;-70
2024/03/12 02:02:47;;;;;;;;;27.00;23.00;;;;;-143.90;100.00;75041.97;4930824;28;103872;-70
2024/03/12 02:05:14;;;;;;;;;23.75;20.25;;;;;-143.90;100.00;75037.84;4946036;28;102778;-70
2024/03/12 02:07:45;;;;;;;;;24.25;21.00;;;;;-143.90;100.00;75035.78;4905025;28;104485;-70
2024/03/12 02:10:14;;;;;;;;;19.00;16.75;;;;;-143.90;100.00;75033.72;4931038;28;102548;-70
2024/03/12 02:12:41;;;;;;;;;25.75;23.00;;;;;-143.90;100.00;75044.03;4941394;28;104494;-70
2024/03/12 02:15:08;;;;;;;;;21.25;18.00;;;;;-143.90;100.00;75041.97;4943156;28;101982;-70
2024/03/12 02:17:35;;;;;;;;;25.75;21.25;;;;;-143.90;100.00;75039.91;4940032;28;102276;-70
2024/03/12 02:20:08;;;;;;;;;20.50;20.25;;;;;-143.90;100.00;75035.78;4925129;28;102576;-71
2024/03/12 02:22:35;;;;;;;;;23.25;20.00;;;;;-143.90;100.00;75031.63;4934049;28;104240;-71
2024/03/12 02:25:09;;;;;;;;;24.25;19.50;;;;;-143.90;100.00;75027.50;4940420;28;102514;-70
2024/03/12 02:27:37;;;;;;;;;20.00;18.00;;;;;-143.90;100.00;75027.50;4940259;28;102414;-70
2024/03/12 02:30:05;;;;;;;;;17.00;15.00;;;;;-143.90;100.00;75029.56;4921321;28;102437;-71
2024/03/12 02:32:32;;;;;;;;;24.50;21.00;;;;;-143.90;100.00;75029.56;4936047;28;104457;-71
2024/03/12 02:34:59;;;;;;;;;21.25;18.50;;;;;-143.90;100.00;75027.50;4937212;28;102026;-71
2024/03/12 02:37:26;;;;;;;;;24.75;23.25;;;;;-143.90;100.00;75039.91;4935147;28;102040;-71
2024/03/12 02:39:52;;;;;;;;;37.00;31.00;;;;;-143.90;100.00;75052.31;4925438;28;102401;-70
2024/03/12 02:42:19;;;;;;;;;29.25;26.00;;;;;-143.90;100.00;75048.19;4928592;28;104155;-70
2024/03/12 02:44:45;;;;;;;;;35.75;25.50;;;;;-143.90;100.00;75039.91;4936583;28;102631;-70
2024/03/12 02:47:12;;;;;;;;;18.50;15.25;;;;;-143.90;100.00;75041.97;4935309;28;101964;-71
2024/03/12 02:49:39;;;;;;;;;23.00;17.50;;;;;-143.90;100.00;75033.72;4939487;28;102309;-70
2024/03/12 02:52:06;;;;;;;;;34.00;29.75;;;;;-143.90;100.00;75046.09;4925483;28;108881;-71
2024/03/12 02:54:33;;;;;;;;;23.50;19.75;;;;;-143.90;100.00;75048.19;4936711;28;102061;-71
2024/03/12 02:57:00;;;;;;;;;33.50;27.50;;;;;-143.90;100.00;75050.25;4940661;28;102004;-72
2024/03/12 02:59:27;;;;;;;;;32.00;26.50;;;;;-143.90;100.00;75048.19;4943819;28;104849;-71
2024/03/12 03:01:56;;;;;;;;;26.75;22.00;;;;;-143.90;100.00;75044.03;4929983;28;104159;-71
2024/03/12 03:04:23;;;;;;;;;25.75;23.75;;;;;-143.90;100.00;75050.25;4931545;28;102184;-70
2024/03/12 03:06:51;;;;;;;;;38.50;35.50;;;;;-143.90;100.00;75064.72;4934032;28;102427;-71
2024/03/12 03:09:18;;;;;;;;;35.50;29.00;;;;;-143.90;100.00;75056.44;4943386;28;102286;-71
2024/03/12 03:11:45;;;;;;;;;26.25;23.75;;;;;-143.90;100.00;75058.50;4932408;28;104075;-71
2024/03/12 03:14:12;;;;;;;;;41.00;33.00;;;;;-143.90;100.00;75072.97;4932280;28;103134;-71
2024/03/12 03:16:38;;;;;;;;;35.50;32.00;;;;;-143.90;100.00;75077.13;4944692;28;102250;-70
2024/03/12 03:19:05;;;;;;;;;36.75;28.50;;;;;-143.90;100.00;75066.78;4938317;28;102506;-70
2024/03/12 03:21:32;;;;;;;;;40.00;32.25;;;;;-143.90;100.00;75068.84;4932485;28;104749;-69
2024/03/12 03:23:58;;;;;;;;;34.50;28.00;;;;;-143.90;100.00;75064.72;4920467;28;104164;-70
2024/03/12 03:26:25;;;;;;;;;45.25;36.00;;;;;-143.90;100.00;75068.84;4940525;28;104981;-70
2024/03/12 03:28:52;;;;;;;;;45.25;35.00;;;;;-143.90;100.00;75075.06;4934293;28;102450;-71
2024/03/12 03:31:19;;;;;;;;;37.75;28.00;;;;;-143.90;100.00;75072.97;4939638;28;104042;-70
2024/03/12 03:33:47;;;;;;;;;26.00;24.25;;;;;-143.90;100.00;75072.97;4937235;28;102458;-71
2024/03/12 03:36:14;;;;;;;;;40.50;33.50;;;;;-143.90;100.00;75077.13;4939044;28;101961;-70
2024/03/12 03:38:41;;;;;;;;;46.25;37.75;;;;;-143.90;100.00;75081.25;4934372;28;102424;-71
2024/03/12 03:41:08;;;;;;;;;41.75;35.25;;;;;-143.90;100.00;75093.66;4932123;28;108968;-70
2024/03/12 03:43:37;;;;;;;;;43.50;33.75;;;;;-143.90;100.00;75093.66;4933725;28;102134;-71
2024/03/12 03:46:04;;;;;;;;;45.25;36.75;;;;;-143.90;100.00;75093.66;4929797;28;104432;-71
2024/03/12 03:48:31;;;;;;;;;36.00;29.75;;;;;-143.90;100.00;75089.53;4934060;28;102425;-70
2024/03/12 03:50:57;;;;;;;;;36.25;28.50;;;;;-143.90;100.00;75091.59;4936377;28;104144;-71
2024/03/12 03:53:24;;;;;;;;;39.50;30.25;;;;;-143.90;100.00;75093.66;4934372;28;102047;-70
2024/03/12 03:55:50;;;;;;;;;34.75;29.25;;;;;-143.90;100.00;75091.59;4918483;28;102229;-70
2024/03/12 03:58:18;;;;;;;;;34.25;27.00;;;;;-143.90;100.00;75093.66;4939080;28;107710;-71
2024/03/12 04:00:44;;;;;;;;;29.50;25.00;;;;;-143.90;100.00;75087.47;4936163;28;104180;-71
2024/03/12 04:03:11;;;;;;;;;35.75;28.50;;;;;-143.90;100.00;75093.66;4934785;28;102492;-70
2024/03/12 04:05:38;;;;;;;;;41.75;36.00;;;;;-143.90;100.00;75093.66;4921711;28;102608;-70
2024/03/12 04:08:06;;;;;;;;;29.75;25.00;;;;;-143.90;100.00;75083.31;4918534;28;102197;-70
2024/03/12 04:10:33;;;;;;;;;35.50;30.00;;;;;-143.90;100.00;75089.53;4937443;28;104808;-70
2024/03/12 04:13:00;;;;;;;;;39.50;34.50;;;;;-143.90;100.00;75083.31;4943990;28;103825;-70
2024/03/12 04:15:28;;;;;;;;;40.00;31.75;;;;;-143.90;100.00;75089.53;4941386;28;102069;-70
2024/03/12 04:17:56;;;;;;;;;17.75;15.50;;;;;-143.90;100.00;75081.25;4934050;28;102360;-71
2024/03/12 04:20:23;;;;;;;;;27.75;24.75;;;;;-143.90;100.00;75081.25;4940896;28;108833;-70
2024/03/12 04:22:49;;;;;;;;;24.75;21.75;;;;;-143.90;100.00;75077.13;4935267;28;102034;-70
2024/03/12 04:25:17;;;;;;;;;36.25;27.75;;;;;-143.90;100.00;75081.25;4943194;28;102467;-70
2024/03/12 04:27:45;;;;;;;;;30.25;25.50;;;;;-143.90;100.00;75081.25;4936750;28;102193;-71
2024/03/12 04:30:13;;;;;;;;;23.75;21.25;;;;;-143.90;100.00;75072.97;4936969;28;104002;-71
2024/03/12 04:32:40;;;;;;;;;29.00;25.25;;;;;-143.90;100.00;75070.91;4934107;28;103973;-70
2024/03/12 04:35:09;;;;;;;;;24.50;20.75;;;;;-143.90;100.00;75077.13;4931540;28;102434;-70
2024/03/12 04:37:36;;;;;;;;;23.75;18.00;;;;;-143.90;100.00;75070.91;4933086;28;102281;-71
2024/03/12 04:40:06;;;;;;;;;24.50;19.25;;;;;-143.90;100.00;75077.13;4922395;28;103984;-70
2024/03/12 04:42:34;;;;;;;;;23.75;19.75;;;;;-143.90;100.00;75068.84;4944033;28;102597;-70
2024/03/12 04:45:04;;;;;;;;;32.25;22.75;;;;;-143.90;100.00;75081.25;4940044;28;102082;-70
2024/03/12 04:47:32;;;;;;;;;29.00;23.25;;;;;-143.90;100.00;75083.31;4941204;28;102293;-70
2024/03/12 04:49:59;;;;;;;;;30.00;22.25;;;;;-143.90;100.00;75083.31;4931402;28;104235;-70
2024/03/12 04:52:26;;;;;;;;;21.00;19.00;;;;;-143.90;100.00;75081.25;4938366;28;102173;-70
2024/03/12 04:54:53;;;;;;;;;30.25;25.50;;;;;-143.90;100.00;75079.19;4943140;28;102377;-71
2024/03/12 04:57:20;;;;;;;;;19.50;17.00;;;;;-143.90;100.00;75077.13;4939816;28;102619;-70
2024/03/12 04:59:47;;;;;;;;;24.00;19.00;;;;;-143.90;100.00;75077.13;4935801;28;104576;-71
2024/03/12 05:02:15;;;;;;;;;17.50;14.75;;;;;-143.90;100.00;75068.84;4938066;28;103243;-70
2024/03/12 05:04:42;;;;;;;;;28.00;22.75;;;;;-143.90;100.00;75077.13;4939753;28;102063;-72
2024/03/12 05:07:08;;;;;;;;;26.75;23.50;;;;;-143.90;100.00;75087.47;4933513;28;105733;-70
2024/03/12 05:09:35;;;;;;;;;21.75;19.00;;;;;-143.90;100.00;75081.25;4938142;28;104178;-69
2024/03/12 05:12:02;;;;;;;;;14.25;13.00;;;;;-143.90;100.00;75075.06;4923629;28;102808;-70
2024/03/12 05:14:28;;;;;;;;;24.25;18.75;;;;;-143.90;100.00;75081.25;4939460;28;102573;-70
2024/03/12 05:16:56;;;;;;;;;32.50;27.75;;;;;-143.90;100.00;75085.38;4924761;28;102103;-70
2024/03/12 05:19:24;;;;;;;;;23.25;19.50;;;;;-143.90;100.00;75093.66;4929886;28;104099;-71
2024/03/12 05:21:51;;;;;;;;;22.75;21.75;;;;;-143.90;100.00;75085.38;4917737;28;102800;-70
2024/03/12 05:24:18;;;;;;;;;23.00;17.00;;;;;-143.90;100.00;75081.25;4927627;28;102524;-72
2024/03/12 05:26:47;;;;;;;;;16.00;13.75;;;;;-143.90;100.00;75072.97;4937829;28;101927;-72
2024/03/12 05:29:14;;;;;;;;;25.75;22.75;;;;;-143.90;100.00;75085.38;4931620;28;104273;-70
2024/03/12 05:31:40;;;;;;;;;24.75;20.00;;;;;-143.90;100.00;75085.38;4931468;28;102475;-71
2024/03/12 05:34:16;;;;;;;;;13.75;13.00;;;;;-143.90;100.00;75072.97;4928749;28;102646;-71
2024/03/12 05:36:51;;;;;;;;;20.75;18.25;;;;;-143.90;100.00;75081.25;4938219;28;102656;-71
2024/03/12 05:39:37;;;;;;;;;21.75;20.00;;;;;-143.90;100.00;75077.13;4928153;28;103972;-71
2024/03/12 05:50:21;;;;;;;;;33.75;25.75;;;;;-143.90;100.00;75081.25;4936021;28;103959;-70
2024/03/12 05:52:48;;;;;;;;;27.75;23.00;;;;;-143.90;100.00;75081.25;4933161;28;102339;-70
2024/03/12 05:55:15;;;;;;;;;28.50;21.25;;;;;-143.90;100.00;75085.38;4926211;28;102520;-70
2024/03/12 05:57:45;;;;;;;;;22.00;18.00;;;;;-143.90;100.00;75081.25;4932106;28;103840;-72
2024/03/12 06:00:12;;;;;;;;;28.75;25.50;;;;;-143.90;100.00;75083.31;4927148;28;104388;-71
2024/03/12 06:02:39;;;;;;;;;30.00;24.00;;;;;-143.90;100.00;75085.38;4939860;28;105231;-71
2024/03/12 06:05:08;;;;;;;;;34.00;26.75;;;;;-143.90;100.00;75087.47;4928059;28;103122;-70
2024/03/12 06:07:35;;;;;;;;;29.50;24.00;;;;;-143.90;100.00;75089.53;4935502;28;102509;-70
2024/03/12 06:10:01;;;;;;;;;22.00;20.75;;;;;-143.90;100.00;75093.66;4932122;28;104339;-70
2024/03/12 06:12:28;;;;;;;;;28.50;24.75;;;;;-143.90;100.00;75106.06;4945113;28;102379;-70
2024/03/12 06:14:55;;;;;;;;;26.75;21.25;;;;;-143.90;100.00;75099.88;4931355;28;102352;-70
2024/03/12 06:17:21;;;;;;;;;27.00;24.75;;;;;-143.90;100.00;75093.66;4942001;28;102416;-71
2024/03/12 06:19:48;;;;;;;;;25.25;23.25;;;;;-143.90;100.00;75093.66;4931882;28;104081;-70
2024/03/12 06:22:16;;;;;;;;;29.75;24.25;;;;;-143.90;100.00;75091.59;4937924;28;102569;-71
2024/03/12 06:24:47;;;;;;;;;24.50;20.00;;;;;-143.90;100.00;75079.19;4939635;28;104767;-70
2024/03/12 06:27:16;;;;;;;;;20.50;19.50;;;;;-143.90;100.00;75079.19;4941048;28;102455;-70
2024/03/12 06:29:45;;;;;;;;;22.75;17.75;;;;;-143.90;100.00;75079.19;4943869;28;103783;-71
2024/03/12 06:32:11;;;;;;;;;23.50;18.75;;;;;-143.90;100.00;75083.31;4943416;28;101919;-71
2024/03/12 06:34:38;;;;;;;;;20.75;19.50;;;;;-143.90;100.00;75089.53;4941838;28;102244;-70
2024/03/12 06:37:05;;;;;;;;;32.25;27.25;;;;;-143.90;100.00;75089.53;4935972;28;107443;-71
2024/03/12 06:39:32;;;;;;;;;29.50;26.25;;;;;-143.90;100.00;75087.47;4936172;28;104013;-71
2024/03/12 06:42:00;;;;;;;;;19.50;16.25;;;;;-143.90;100.00;75083.31;4929606;28;102750;-71
2024/03/12 06:44:35;;;;;;;;;22.00;19.75;;;;;-143.90;100.00;75085.38;4931689;28;102524;-70
2024/03/12 06:47:03;;;;;;;;;26.75;20.25;;;;;-143.90;100.00;75077.13;4929722;28;102705;-70
2024/03/12 06:49:32;;;;;;;;;25.00;16.75;;;;;-143.90;100.00;75081.25;4932777;28;104125;-70
2024/03/12 06:51:59;;;;;;;;;22.75;19.50;;;;;-143.90;100.00;75085.38;4918396;28;102536;-72
2024/03/12 06:54:31;;;;;;;;;25.50;19.75;;;;;-143.90;100.00;75081.25;4942742;28;102267;-72
2024/03/12 06:56:58;;;;;;;;;34.50;27.50;;;;;-143.90;100.00;75089.53;4943452;28;102019;-72
2024/03/12 06:59:25;;;;;;;;;23.50;20.25;;;;;-143.90;100.00;75075.06;4943096;28;103959;-72
2024/03/12 07:01:53;;;;;;;;;26.25;21.50;;;;;-143.90;100.00;75085.38;4933130;28;102859;-71
2024/03/12 07:04:23;;;;;;;;;26.50;21.50;;;;;-143.90;100.00;75077.13;4933548;28;102891;-71
2024/03/12 07:06:54;;;;;;;;;32.25;26.00;;;;;-143.90;100.00;75081.25;4943442;28;102377;-71
2024/03/12 07:09:27;;;;;;;;;26.00;21.50;;;;;-143.90;100.00;75079.19;4925913;28;104857;-71
2024/03/12 07:11:54;;;;;;;;;21.00;18.50;;;;;-143.90;100.00;75068.84;4924178;28;102275;-71
2024/03/12 07:14:27;;;;;;;;;22.25;20.25;;;;;-143.90;100.00;75070.91;4930523;28;102094;-70
2024/03/12 07:16:57;;;;;;;;;24.25;14.75;;;;;-143.90;100.00;75066.78;4942277;28;102297;-70
2024/03/12 07:19:23;;;;;;;;;20.00;19.00;;;;;-143.90;100.00;75068.84;4942263;28;104338;-70
2024/03/12 07:21:50;;;;;;;;;21.50;18.00;;;;;-143.90;100.00;75064.72;4932280;28;101975;-71
2024/03/12 07:24:17;;;;;;;;;16.75;14.00;;;;;-143.90;100.00;75060.59;4945261;28;102337;-70
2024/03/12 07:26:47;;;;;;;;;22.75;18.00;;;;;-143.90;100.00;75058.50;4941305;28;102364;-70
2024/03/12 07:29:14;;;;;;;;;25.25;22.50;;;;;-143.90;100.00;75077.13;4936499;28;109089;-71
2024/03/12 07:31:41;;;;;;;;;19.75;18.00;;;;;-143.90;100.00;75070.91;4943189;28;102263;-71
2024/03/12 07:34:08;;;;;;;;;18.50;17.25;;;;;-143.90;100.00;75068.84;4925858;28;101892;-71
2024/03/12 07:36:35;;;;;;;;;27.00;19.75;;;;;-143.90;100.00;75072.97;4933973;28;102370;-71
2024/03/12 07:39:08;;;;;;;;;36.50;30.25;;;;;-143.90;100.00;75072.97;4932927;28;103940;-71
2024/03/12 07:41:35;;;;;;;;;30.75;24.00;;;;;-143.90;100.00;75062.66;4941426;28;102020;-71
2024/03/12 07:44:02;;;;;;;;;23.75;19.75;;;;;-143.90;100.00;75064.72;4932187;28;102838;-71
2024/03/12 07:46:29;;;;;;;;;30.50;23.75;;;;;-143.90;100.00;75062.66;4935301;28;104799;-71
2024/03/12 07:48:56;;;;;;;;;26.50;24.75;;;;;-143.90;100.00;75062.66;4941582;28;103572;-72
2024/03/12 07:51:23;;;;;;;;;27.25;22.75;;;;;-143.90;100.00;75052.31;4940713;28;102245;-72
2024/03/12 07:53:49;;;;;;;;;28.25;24.00;;;;;-143.90;100.00;75046.09;4926566;28;104882;-72
2024/03/12 07:56:18;;;;;;;;;21.25;18.75;;;;;-143.90;100.00;75048.19;4937835;28;102126;-72
2024/03/12 07:58:46;;;;;;;;;31.75;23.50;;;;;-143.90;100.00;75044.03;4940827;28;104155;-69
2024/03/12 08:01:14;;;;;;;;;19.25;16.75;;;;;-143.90;100.00;75044.03;4840477;28;103139;-72
2024/03/12 08:03:41;;;;;;;;;20.25;15.75;;;;;-143.90;100.00;75035.78;4933898;28;102600;-71
2024/03/12 08:06:08;;;;;;;;;22.00;20.25;;;;;-143.90;100.00;75035.78;4937826;28;105268;-71
2024/03/12 08:08:35;;;;;;;;;20.00;19.50;;;;;-143.90;100.00;75039.91;4941786;28;103945;-71
2024/03/12 08:11:04;;;;;;;;;19.00;18.25;;;;;-143.90;100.00;75029.56;4943308;28;102411;-71
2024/03/12 08:13:31;;;;;;;;;15.75;14.00;;;;;-143.90;100.00;75031.63;4940521;28;101999;-72
2024/03/12 08:15:58;;;;;;;;;23.00;20.00;;;;;-143.90;100.00;75035.78;4928338;28;102780;-71
2024/03/12 08:18:26;;;;;;;;;24.00;19.00;;;;;-143.90;100.00;75031.63;4930985;28;104125;-72
2024/03/12 08:20:53;;;;;;;;;17.00;14.50;;;;;-143.90;100.00;75023.38;4939139;28;102504;-72
2024/03/12 08:23:19;;;;;;;;;14.75;12.75;;;;;-143.90;100.00;75010.97;4937191;28;106395;-71
2024/03/12 08:25:46;;;;;;;;;11.50;10.50;;;;;-143.90;100.00;75010.97;4934324;28;102671;-71
2024/03/12 08:28:25;;;;;;;;;14.75;10.50;;;;;-143.90;100.00;75019.22;4942070;28;104215;-71
2024/03/12 08:30:51;;;;;;;;;15.50;14.75;;;;;-143.90;100.00;75015.09;4937213;28;102200;-72
2024/03/12 08:33:18;;;;;;;;;17.00;15.50;;;;;-143.90;100.00;75031.63;4943530;28;102300;-71
2024/03/12 08:35:45;;;;;;;;;20.25;16.50;;;;;-143.90;100.00;75029.56;4929122;28;102668;-72
2024/03/12 08:38:12;;;;;;;;;14.25;13.75;;;;;-143.90;100.00;75019.22;4940518;28;108731;-72
2024/03/12 08:40:39;;;;;;;;;17.25;15.25;;;;;-143.90;100.00;75031.63;4935336;28;102414;-72
2024/03/12 08:43:06;;;;;;;;;17.75;16.25;;;;;-143.90;100.00;75029.56;4942888;28;103123;-72
2024/03/12 08:45:35;;;;;;;;;18.50;15.50;;;;;-143.90;100.00;75035.78;4930453;28;102320;-72
2024/03/12 08:48:05;;;;;;;;;23.50;19.75;;;;;-143.90;100.00;75023.38;4926545;28;103988;-72
2024/03/12 08:50:35;;;;;;;;;24.50;20.00;;;;;-143.90;100.00;75039.91;4930932;28;102541;-72
2024/03/12 08:53:01;;;;;;;;;23.50;18.25;;;;;-143.90;100.00;75031.63;4935783;28;103297;-71
2024/03/12 08:55:28;;;;;;;;;13.75;12.00;;;;;-143.90;100.00;75017.16;4938735;28;104480;-71
2024/03/12 08:57:55;;;;;;;;;13.00;11.75;;;;;-143.90;100.00;75017.16;4930719;28;103875;-71
2024/03/12 09:00:22;;;;;;;;;19.00;18.00;;;;;-143.90;100.00;75021.31;4939107;28;102224;-71
2024/03/12 09:02:49;;;;;;;;;19.25;17.25;;;;;-143.90;100.00;75027.50;4937676;28;102011;-71
2024/03/12 09:05:17;;;;;;;;;23.00;20.25;;;;;-143.90;100.00;75037.84;4928298;28;102136;-71
2024/03/12 09:07:45;;;;;;;;;21.25;18.50;;;;;-143.90;100.00;75023.38;4938685;28;108320;-72
2024/03/12 09:10:12;;;;;;;;;16.75;14.75;;;;;-143.90;100.00;75023.38;4937838;28;101992;-71
2024/03/12 09:12:43;;;;;;;;;16.00;14.75;;;;;-143.90;100.00;75010.97;4926705;28;101902;-71
2024/03/12 09:15:09;;;;;;;;;22.75;17.00;;;;;-143.90;100.00;75013.03;4923116;28;102424;-71
2024/03/12 09:17:40;;;;;;;;;23.25;20.00;;;;;-143.90;100.00;75023.38;4918392;28;103961;-72
2024/03/12 09:20:10;;;;;;;;;21.00;19.25;;;;;-143.90;100.00;75002.69;4918109;28;102882;-70
2024/03/12 09:22:38;;;;;;;;;20.00;17.25;;;;;-143.90;100.00;75010.97;4918444;28;102465;-71
2024/03/12 09:25:08;;;;;;;;;19.50;18.00;;;;;-143.90;100.00;75002.69;4928390;28;104417;-71
2024/03/12 09:27:35;;;;;;;;;13.50;11.50;;;;;-143.90;100.00;74996.50;4925296;28;103933;-71
2024/03/12 09:30:03;;;;;;;;;21.25;19.75;;;;;-143.90;100.00;75006.84;4911385;28;102536;-71
2024/03/12 09:32:29;;;;;;;;;9.50;8.50;;;;;-143.90;100.00;75000.63;4924300;28;102399;-71
2024/03/12 09:34:56;;;;;;;;;11.75;11.00;;;;;-143.90;100.00;75000.63;4925886;28;103123;-71
2024/03/12 09:37:23;;;;;;;;;19.75;15.00;;;;;-143.90;100.00;74994.44;4923119;28;104369;-70
2024/03/12 09:39:53;;;;;;;;;19.00;15.50;;;;;-143.90;100.00;75006.84;4905511;28;102560;-71
2024/03/12 09:42:25;;;;;;;;;19.00;15.25;;;;;-143.90;100.00;75004.75;4914407;28;102777;-71
2024/03/12 09:44:53;;;;;;;;;18.25;16.25;;;;;-143.90;100.00;74994.44;4923658;28;102353;-71
2024/03/12 09:47:20;;;;;;;;;14.50;12.25;;;;;-143.90;100.00;74986.16;4919903;28;104677;-71
2024/03/12 09:49:48;;;;;;;;;12.25;10.25;;;;;-143.90;100.00;74973.75;4920091;28;102260;-72
2024/03/12 09:52:15;;;;;;;;;17.00;14.50;;;;;-143.90;100.00;74984.09;4919491;28;102635;-71
2024/03/12 09:54:43;;;;;;;;;15.00;14.75;;;;;-143.90;100.00;74979.97;4921771;28;102452;-70
2024/03/12 09:57:13;;;;;;;;;22.00;19.50;;;;;-143.90;100.00;74975.81;4918129;28;104025;-72
2024/03/12 09:59:40;;;;;;;;;20.25;19.00;;;;;-143.90;100.00;74957.22;4922464;28;102555;-72
2024/03/12 10:02:10;;;;;;;;;16.75;15.00;;;;;-143.90;100.00;74951.00;4911489;28;102314;-71
2024/03/12 10:04:37;;;;;;;;;16.00;11.00;;;;;-143.90;100.00;74961.34;4925123;28;102362;-71
2024/03/12 10:07:05;;;;;;;;;8.00;8.00;;;;;-143.90;100.00;74940.69;4926119;28;103938;-71
2024/03/12 10:09:32;;;;;;;;;18.00;14.00;;;;;-143.90;100.00;74946.88;4917500;28;102488;-71
2024/03/12 10:12:01;;;;;;;;;15.25;11.00;;;;;-143.90;100.00;74924.13;4920571;28;102455;-71
2024/03/12 10:14:28;;;;;;;;;21.25;19.25;;;;;-143.90;100.00;74926.22;4944185;28;104257;-71
2024/03/12 10:17:16;;;;;;;;;11.00;9.00;;;;;-143.90;100.00;74926.22;4936040;28;104105;-71
2024/03/12 10:19:50;;;;;;;;;13.75;10.00;;;;;-143.90;100.00;74917.94;4934433;28;102502;-73
2024/03/12 10:22:20;;;;;;;;;16.75;15.00;;;;;-143.90;100.00;74942.75;4939227;28;102565;-71
2024/03/12 10:24:48;;;;;;;;;14.00;12.25;;;;;-143.90;100.00;74922.06;4944253;28;104379;-71
2024/03/12 10:27:16;;;;;;;;;12.75;11.25;;;;;-143.90;100.00;74924.13;4945440;28;102952;-71
2024/03/12 10:29:43;;;;;;;;;13.75;9.75;;;;;-143.90;100.00;74928.28;4941610;28;102551;-72
2024/03/12 10:32:20;;;;;;;;;14.25;12.00;;;;;-143.90;100.00;74928.28;4940250;28;102379;-71
2024/03/12 10:34:47;;;;;;;;;19.00;18.00;;;;;-143.90;100.00;74961.34;4943291;28;102554;-72
2024/03/12 10:37:32;;;;;;;;;19.75;16.25;;;;;-143.90;100.00;74971.69;4944356;28;104699;-72
2024/03/12 10:40:15;;;;;;;;;19.25;12.75;;;;;-143.90;100.00;74953.09;4938206;28;105208;-72
2024/03/12 10:42:52;;;;;;;;;21.00;16.00;;;;;-143.90;100.00;74934.47;4943629;28;102212;-72
2024/03/12 10:45:21;;;;;;;;;14.75;11.25;;;;;-143.90;100.00;74920.00;4942584;28;102448;-72
2024/03/12 10:47:49;;;;;;;;;11.50;11.00;;;;;-143.90;100.00;74938.59;4933032;28;104068;-72
2024/03/12 10:50:16;;;;;;;;;15.25;14.75;;;;;-143.90;100.00;74936.53;4936896;28;102557;-71
2024/03/12 10:52:47;;;;;;;;;30.75;24.75;;;;;-143.90;100.00;74963.41;4943179;28;103918;-72
2024/03/12 10:55:23;;;;;;;;;19.75;17.00;;;;;-143.90;100.00;74940.69;4943950;28;102542;-72
2024/03/12 10:57:53;;;;;;;;;18.00;17.00;;;;;-143.90;100.00;74942.75;4927437;28;104491;-71
2024/03/12 11:00:25;;;;;;;;;27.50;20.00;;;;;-143.90;100.00;74924.13;4941400;28;104207;-72